createdAt,value
2023-03-04T00:03:52.978Z,96.64
2023-03-04T00:08:54.678Z,96.30
2023-03-04T00:13:57.172Z,95.90
2023-03-04T00:18:58.943Z,96.40
2023-03-04T00:24:00.757Z,97.14
2023-03-04T00:29:02.390Z,96.53
2023-03-04T00:34:04.151Z,95.77
2023-03-04T00:39:06.035Z,97.10
2023-03-04T00:44:07.768Z,97.06
2023-03-04T00:49:09.392Z,97.86
2023-03-04T00:54:11.088Z,97.72
2023-03-04T00:59:12.804Z,97.26
2023-03-04T01:04:14.454Z,96.43
2023-03-04T01:09:16.107Z,96.80
2023-03-04T01:14:17.799Z,97.37
2023-03-04T01:19:19.880Z,96.76
2023-03-04T01:24:21.526Z,96.59
2023-03-04T01:29:23.304Z,95.86
2023-03-04T01:34:25.020Z,95.01
2023-03-04T01:39:26.718Z,95.37
2023-03-04T01:44:28.567Z,96.32
2023-03-04T01:49:30.886Z,95.00
2023-03-04T01:54:32.607Z,95.88
2023-03-04T01:59:34.284Z,95.93
2023-03-04T02:04:36.013Z,94.24
2023-03-04T02:09:37.732Z,94.79
2023-03-04T02:14:39.624Z,95.07
2023-03-04T02:19:49.789Z,94.04
2023-03-04T02:25:03.444Z,93.78
2023-03-04T02:30:06.249Z,94.83
2023-03-04T02:35:14.590Z,94.37
2023-03-04T02:40:24.854Z,95.10
2023-03-04T02:45:40.666Z,94.05
2023-03-04T02:50:47.372Z,93.97
2023-03-04T02:55:49.464Z,94.42
2023-03-04T03:00:51.999Z,95.58
2023-03-04T03:05:54.320Z,94.89
2023-03-04T03:10:56.259Z,94.03
2023-03-04T03:15:59.166Z,94.20
2023-03-04T03:21:01.007Z,93.84
2023-03-04T03:26:03.880Z,94.41
2023-03-04T03:31:06.628Z,95.57
2023-03-04T03:36:09.022Z,95.03
2023-03-04T03:41:10.866Z,94.79
2023-03-04T03:46:12.668Z,95.75
2023-03-04T03:51:14.335Z,95.20
2023-03-04T03:56:16.005Z,95.38
2023-03-04T04:01:17.653Z,95.52
2023-03-04T04:06:19.438Z,95.14
2023-03-04T04:11:21.504Z,95.47
2023-03-04T04:16:23.254Z,95.71
2023-03-04T04:21:24.957Z,95.43
2023-03-04T04:26:26.674Z,95.19
2023-03-04T04:31:28.319Z,94.13
2023-03-04T04:36:30.047Z,94.39
2023-03-04T04:41:36.800Z,93.83
2023-03-04T04:46:39.491Z,94.71
2023-03-04T04:51:41.239Z,95.29
2023-03-04T04:56:43.134Z,93.85
2023-03-04T05:01:44.890Z,93.97
2023-03-04T05:06:46.584Z,93.33
2023-03-04T05:11:48.373Z,93.65
2023-03-04T05:16:50.298Z,92.73
2023-03-04T05:21:51.949Z,92.67
2023-03-04T05:26:53.755Z,92.71
2023-03-04T05:31:55.606Z,92.36
2023-03-04T05:36:57.332Z,92.06
2023-03-04T05:41:58.999Z,92.64
2023-03-04T05:47:00.711Z,92.74
2023-03-04T05:52:02.378Z,91.34
2023-03-04T05:57:04.142Z,92.38
2023-03-04T06:02:05.779Z,92.04
2023-03-04T06:07:07.459Z,91.47
2023-03-04T06:12:09.098Z,91.82
2023-03-04T06:17:10.759Z,91.88
2023-03-04T06:22:12.645Z,91.95
2023-03-04T06:27:14.350Z,92.37
2023-03-04T06:32:16.019Z,92.85
2023-03-04T06:37:17.970Z,93.04
2023-03-04T06:42:19.639Z,93.46
2023-03-04T06:47:21.485Z,94.00
2023-03-04T06:52:23.168Z,95.23
2023-03-04T06:57:24.893Z,95.23
2023-03-04T07:02:26.515Z,96.14
2023-03-04T07:07:28.191Z,95.97
2023-03-04T07:12:29.992Z,95.71
2023-03-04T07:17:31.605Z,96.32
2023-03-04T07:22:33.224Z,97.53
2023-03-04T07:27:35.006Z,97.52
2023-03-04T07:32:36.783Z,97.31
2023-03-04T07:37:40.245Z,98.43
2023-03-04T07:42:41.951Z,98.80
2023-03-04T07:47:47.146Z,99.26
2023-03-04T07:52:51.001Z,98.44
2023-03-04T07:57:52.640Z,99.27
2023-03-04T08:02:54.283Z,100.00
2023-03-04T08:07:57.971Z,99.59
2023-03-04T08:12:59.904Z,98.50
2023-03-04T08:18:02.461Z,98.39
2023-03-04T08:23:04.284Z,97.57
2023-03-04T08:28:06.773Z,97.80
2023-03-04T08:33:09.664Z,99.62
2023-03-04T08:38:11.370Z,98.69
2023-03-04T08:43:13.138Z,98.51
2023-03-04T08:48:15.161Z,99.39
2023-03-04T08:53:21.602Z,98.85
2023-03-04T08:58:23.381Z,98.26
2023-03-04T09:03:25.090Z,100.00
2023-03-04T09:08:26.912Z,98.92
2023-03-04T09:13:30.872Z,99.54
2023-03-04T09:18:32.742Z,99.83
2023-03-04T09:23:42.355Z,98.24
2023-03-04T09:28:48.111Z,100.00
2023-03-04T09:33:52.492Z,100.00
2023-03-04T09:44:43.431Z,97.49
2023-03-04T09:49:56.760Z,97.68
2023-03-04T09:55:07.476Z,97.78
2023-03-04T10:00:13.597Z,98.61
2023-03-04T10:05:24.839Z,98.44
2023-03-04T10:10:40.477Z,100.00
2023-03-04T10:15:53.836Z,96.77
2023-03-04T10:21:07.586Z,95.73
2023-03-04T10:26:21.253Z,96.80
2023-03-04T10:31:36.678Z,96.22
2023-03-04T10:36:55.578Z,97.26
2023-03-04T10:42:07.017Z,96.94
2023-03-04T10:47:12.003Z,96.86
2023-03-04T10:52:41.312Z,94.87
2023-03-04T10:57:45.004Z,95.46
2023-03-04T11:02:51.823Z,96.48
2023-03-04T11:07:57.464Z,97.66
2023-03-04T11:13:12.316Z,98.72
2023-03-04T11:18:28.217Z,97.88
2023-03-04T11:23:51.675Z,98.15
2023-03-04T11:29:01.466Z,96.63
2023-03-04T11:34:14.333Z,96.71
2023-03-04T11:39:27.048Z,95.15
2023-03-04T11:44:30.646Z,95.18
2023-03-04T11:49:53.275Z,96.64
2023-03-04T11:55:00.719Z,96.29
2023-03-04T12:00:29.493Z,94.56
2023-03-04T12:05:46.360Z,93.55
2023-03-04T12:10:52.938Z,91.63
2023-03-04T12:16:06.674Z,91.46
2023-03-04T12:21:24.560Z,92.77
2023-03-04T12:26:26.248Z,91.77
2023-03-04T12:31:50.590Z,89.94
2023-03-04T12:37:12.101Z,88.52
2023-03-04T12:42:39.774Z,88.13
2023-03-04T12:47:55.181Z,87.92
2023-03-04T12:53:10.451Z,88.06
2023-03-04T12:58:19.476Z,87.12
2023-03-04T13:03:30.598Z,86.22
2023-03-04T13:08:41.502Z,86.50
2023-03-04T13:13:43.153Z,85.42
2023-03-04T13:18:45.103Z,86.63
2023-03-04T13:23:46.944Z,85.49
2023-03-04T13:29:16.079Z,83.92
2023-03-04T13:34:59.104Z,81.70
2023-03-04T13:40:27.418Z,80.66
2023-03-04T13:45:40.127Z,78.74
2023-03-04T13:50:48.438Z,79.78
2023-03-04T13:56:08.750Z,78.09
2023-03-04T14:01:31.637Z,78.06
2023-03-04T14:06:33.231Z,77.75
2023-03-04T14:11:42.305Z,78.71
2023-03-04T14:17:01.922Z,79.16
2023-03-04T14:22:03.674Z,79.43
2023-03-04T14:27:14.911Z,79.03
2023-03-04T14:32:19.769Z,79.50
2023-03-04T14:37:24.670Z,79.21
2023-03-04T14:42:36.850Z,79.50
2023-03-04T14:47:46.574Z,77.73
2023-03-04T14:52:53.315Z,78.58
2023-03-04T14:58:10.289Z,77.96
2023-03-04T15:03:30.207Z,78.58
2023-03-04T15:08:37.326Z,78.37
2023-03-04T15:13:46.439Z,75.86
2023-03-04T15:19:24.573Z,75.96
2023-03-04T15:24:26.184Z,74.17
2023-03-04T15:29:29.252Z,73.43
2023-03-04T15:34:31.499Z,73.20
2023-03-04T15:39:33.492Z,70.67
2023-03-04T15:44:35.574Z,70.79
2023-03-04T15:49:37.448Z,72.38
2023-03-04T15:54:39.402Z,73.36
2023-03-04T15:59:41.702Z,74.76
2023-03-04T16:04:43.640Z,75.11
2023-03-04T16:09:47.028Z,75.91
2023-03-04T16:14:50.088Z,76.84
2023-03-04T16:19:52.029Z,77.06
2023-03-04T16:24:55.472Z,77.81
2023-03-04T16:29:57.584Z,78.63
2023-03-04T16:34:59.303Z,79.71
2023-03-04T16:40:01.329Z,80.33
2023-03-04T16:45:03.389Z,80.43
2023-03-04T16:50:05.373Z,82.14
2023-03-04T16:55:15.012Z,86.04
2023-03-04T17:00:19.142Z,86.27
2023-03-04T17:05:24.261Z,89.65
2023-03-04T17:10:26.798Z,90.07
2023-03-04T17:15:28.635Z,91.42
2023-03-04T17:20:30.554Z,92.86
2023-03-04T17:25:32.540Z,91.87
2023-03-04T17:30:34.709Z,91.55
2023-03-04T17:35:39.918Z,92.99
2023-03-04T17:40:42.415Z,92.94
2023-03-04T17:45:44.602Z,90.91
2023-03-04T17:50:51.139Z,89.34
2023-03-04T17:56:00.335Z,89.15
2023-03-04T18:01:17.784Z,88.43
2023-03-04T18:06:20.494Z,86.23
2023-03-04T18:11:24.797Z,87.17
2023-03-04T18:16:29.055Z,84.10
2023-03-04T18:21:31.523Z,83.73
2023-03-04T18:26:33.419Z,84.62
2023-03-04T18:31:37.219Z,86.49
2023-03-04T18:36:39.520Z,86.47
2023-03-04T18:41:41.709Z,87.11
2023-03-04T18:46:45.659Z,87.44
2023-03-04T18:51:47.836Z,89.21
2023-03-04T18:56:58.232Z,88.19
2023-03-04T19:02:06.497Z,90.05
2023-03-04T19:07:08.367Z,90.36
2023-03-04T19:12:10.777Z,89.24
2023-03-04T19:17:12.942Z,91.45
2023-03-04T19:22:14.966Z,91.17
2023-03-04T19:27:16.941Z,92.36
2023-03-04T19:32:19.332Z,92.20
2023-03-04T19:37:21.682Z,92.34
2023-03-04T19:42:24.208Z,91.57
2023-03-04T19:47:26.163Z,92.62
2023-03-04T19:52:27.965Z,93.27
2023-03-04T19:57:29.913Z,93.47
2023-03-04T20:02:31.616Z,92.45
2023-03-04T20:07:33.375Z,92.03
2023-03-04T20:12:36.290Z,91.60
2023-03-04T20:17:38.033Z,93.54
2023-03-04T20:22:39.882Z,95.47
2023-03-04T20:27:41.492Z,97.40
2023-03-04T20:32:43.189Z,98.34
2023-03-04T20:37:45.122Z,96.78
2023-03-04T20:42:47.106Z,94.23
2023-03-04T20:47:49.884Z,94.18
2023-03-04T20:52:52.315Z,95.67
2023-03-04T20:57:54.588Z,94.12
2023-03-04T21:02:56.715Z,93.00
2023-03-04T21:08:01.397Z,93.03
2023-03-04T21:13:03.144Z,93.12
2023-03-04T21:18:04.762Z,93.98
2023-03-04T21:23:06.432Z,93.73
2023-03-04T21:28:08.032Z,93.95
2023-03-04T21:33:19.328Z,92.99
2023-03-04T21:38:21.086Z,92.34
2023-03-04T21:43:23.778Z,90.16
2023-03-04T21:48:26.011Z,87.75
2023-03-04T21:53:28.779Z,88.13
2023-03-04T21:58:30.962Z,88.95
2023-03-04T22:03:32.604Z,89.60
2023-03-04T22:08:34.423Z,91.69
2023-03-04T22:13:37.301Z,91.47
2023-03-04T22:18:40.799Z,89.83
2023-03-04T22:23:42.973Z,89.57
2023-03-04T22:28:45.379Z,89.59
2023-03-04T22:33:47.767Z,89.28
2023-03-04T22:38:49.477Z,90.37
2023-03-04T22:43:51.229Z,89.00
2023-03-04T22:48:55.664Z,89.18
2023-03-04T22:53:57.924Z,89.21
2023-03-04T22:58:59.540Z,87.64
2023-03-04T23:04:01.415Z,88.08
2023-03-04T23:09:04.056Z,88.92
2023-03-04T23:14:07.902Z,89.25
2023-03-04T23:19:17.433Z,88.75
2023-03-04T23:24:20.152Z,87.41
2023-03-04T23:29:21.887Z,85.52
2023-03-04T23:34:23.727Z,84.87
2023-03-04T23:39:25.403Z,85.00
2023-03-04T23:44:27.233Z,82.96
2023-03-04T23:49:28.897Z,83.56
2023-03-04T23:54:31.340Z,83.03
2023-03-04T23:59:33.074Z,84.74
